Time;durP1;ratioP1;P1;durP2;ratioP2;P2;SDS_P1;SDS_P2;PMS_P1;PMS_P2;Temp;Humidity;BMP_temperature;BMP_pressure;BME280_temperature;BME280_humidity;BME280_pressure;Samples;Min_cycle;Max_cycle;Signal;HPM_P1;HPM_P2
2022/05/11 00:01:26;;;;;;;6.10;4.45;;;;;;;;;;5035392;28;20036;-47
2022/05/11 00:03:52;;;;;;;6.63;4.35;;;;;;;;;;5035435;28;20433;-49
2022/05/11 00:06:18;;;;;;;4.72;4.22;;;;;;;;;;5034291;28;20109;-47
2022/05/11 00:08:44;;;;;;;5.72;4.70;;;;;;;;;;5034925;28;20104;-48
2022/05/11 00:11:10;;;;;;;4.85;4.32;;;;;;;;;;5034232;28;20060;-47
2022/05/11 00:13:36;;;;;;;5.60;3.83;;;;;;;;;;5035063;28;20048;-47
2022/05/11 00:16:03;;;;;;;5.43;4.38;;;;;;;;;;5034489;28;20086;-49
2022/05/11 00:18:29;;;;;;;5.65;4.43;;;;;;;;;;5034991;28;20474;-48
2022/05/11 00:20:55;;;;;;;5.90;4.20;;;;;;;;;;5034403;28;20056;-57
2022/05/11 00:23:21;;;;;;;4.75;4.07;;;;;;;;;;5035113;28;20029;-49
2022/05/11 00:25:48;;;;;;;5.72;4.50;;;;;;;;;;5034954;28;20037;-48
2022/05/11 00:28:14;;;;;;;5.05;4.18;;;;;;;;;;5034234;28;20093;-49
2022/05/11 00:30:40;;;;;;;4.72;4.20;;;;;;;;;;5034599;28;20440;-49
2022/05/11 00:33:07;;;;;;;5.57;4.72;;;;;;;;;;5034202;28;20394;-49
2022/05/11 00:35:34;;;;;;;5.55;4.63;;;;;;;;;;5034938;28;20120;-49
2022/05/11 00:38:00;;;;;;;5.50;4.65;;;;;;;;;;5033287;28;20100;-51
2022/05/11 00:40:26;;;;;;;5.80;4.63;;;;;;;;;;5033936;28;20049;-47
2022/05/11 00:42:52;;;;;;;5.78;4.50;;;;;;;;;;5033381;28;20025;-48
2022/05/11 00:45:19;;;;;;;4.88;4.28;;;;;;;;;;5032594;28;20889;-48
2022/05/11 00:47:47;;;;;;;4.85;4.35;;;;;;;;;;5033525;28;20095;-48
2022/05/11 00:50:15;;;;;;;4.55;4.15;;;;;;;;;;5032305;28;20043;-49
2022/05/11 00:52:43;;;;;;;5.10;4.60;;;;;;;;;;5032862;28;20498;-49
2022/05/11 00:55:14;;;;;;;5.05;4.20;;;;;;;;;;5032570;28;20101;-47
2022/05/11 00:57:46;;;;;;;4.60;3.97;;;;;;;;;;5033668;28;20112;-49
2022/05/11 01:00:13;;;;;;;4.63;4.13;;;;;;;;;;5033068;28;20083;-47
2022/05/11 01:02:43;;;;;;;4.72;4.05;;;;;;;;;;5033884;28;20035;-49
2022/05/11 01:05:09;;;;;;;4.47;4.07;;;;;;;;;;5032368;28;20028;-48
2022/05/11 01:07:36;;;;;;;5.15;4.18;;;;;;;;;;5032651;28;20034;-47
2022/05/11 01:10:02;;;;;;;5.13;4.18;;;;;;;;;;5032094;28;20113;-48
2022/05/11 01:12:31;;;;;;;5.47;4.22;;;;;;;;;;5033188;28;20061;-48
2022/05/11 01:15:00;;;;;;;5.13;4.35;;;;;;;;;;5032685;28;20044;-55
2022/05/11 01:17:26;;;;;;;5.30;4.30;;;;;;;;;;5032797;28;20034;-48
2022/05/11 01:19:53;;;;;;;5.18;3.78;;;;;;;;;;5033127;28;20025;-47
2022/05/11 01:22:31;;;;;;;4.55;4.15;;;;;;;;;;5031992;28;20666;-51
2022/05/11 01:24:57;;;;;;;4.40;4.00;;;;;;;;;;5032996;28;20029;-56
2022/05/11 01:27:25;;;;;;;5.55;4.40;;;;;;;;;;5031981;28;20116;-50
2022/05/11 01:29:51;;;;;;;4.32;3.75;;;;;;;;;;5032849;28;20033;-51
2022/05/11 01:32:18;;;;;;;6.50;4.78;;;;;;;;;;5031670;28;20033;-48
2022/05/11 01:34:44;;;;;;;5.50;3.92;;;;;;;;;;5032694;28;20029;-50
2022/05/11 01:37:10;;;;;;;4.57;4.10;;;;;;;;;;5031481;28;20051;-49
2022/05/11 01:39:36;;;;;;;5.13;4.22;;;;;;;;;;4994479;28;1108284;-48
2022/05/11 01:42:02;;;;;;;4.68;3.58;;;;;;;;;;5032790;28;20042;-54
2022/05/11 01:44:28;;;;;;;5.65;4.30;;;;;;;;;;5032056;28;20432;-49
2022/05/11 01:46:57;;;;;;;4.88;4.22;;;;;;;;;;5033343;28;20069;-49
2022/05/11 01:49:24;;;;;;;5.57;4.28;;;;;;;;;;5032427;28;20359;-47
2022/05/11 01:51:50;;;;;;;5.13;4.35;;;;;;;;;;5033272;28;20036;-48
2022/05/11 01:54:16;;;;;;;4.72;4.03;;;;;;;;;;5032396;28;20021;-48
2022/05/11 01:56:42;;;;;;;5.60;4.78;;;;;;;;;;5033330;28;20029;-47
2022/05/11 01:59:08;;;;;;;5.50;4.05;;;;;;;;;;5032529;28;20025;-47
2022/05/11 02:01:35;;;;;;;6.45;4.40;;;;;;;;;;5033200;28;20104;-47
2022/05/11 02:04:01;;;;;;;6.53;4.88;;;;;;;;;;5032011;28;20045;-55
2022/05/11 02:09:12;;;;;;;5.32;4.60;;;;;;;;;;5012515;28;20032;-48
2022/05/11 02:11:39;;;;;;;4.93;4.25;;;;;;;;;;5013234;28;20467;-49
2022/05/11 02:14:05;;;;;;;4.82;4.32;;;;;;;;;;5012821;28;20057;-51
2022/05/11 02:16:32;;;;;;;5.63;4.47;;;;;;;;;;5014865;28;20471;-47
2022/05/11 02:18:58;;;;;;;6.45;4.88;;;;;;;;;;5033048;28;20024;-48
2022/05/11 02:21:24;;;;;;;6.78;4.45;;;;;;;;;;5032165;28;20095;-49
2022/05/11 02:23:52;;;;;;;4.97;4.22;;;;;;;;;;5032410;28;20037;-48
2022/05/11 02:26:22;;;;;;;5.20;4.50;;;;;;;;;;5031973;28;20128;-49
2022/05/11 02:28:51;;;;;;;5.70;4.72;;;;;;;;;;5033049;28;20025;-48
2022/05/11 02:31:17;;;;;;;5.18;4.28;;;;;;;;;;5032021;28;20029;-51
2022/05/11 02:33:44;;;;;;;5.55;4.60;;;;;;;;;;5032676;28;20029;-49
2022/05/11 02:36:10;;;;;;;4.78;4.25;;;;;;;;;;5031781;28;20036;-48
2022/05/11 02:38:36;;;;;;;5.07;4.40;;;;;;;;;;5031584;28;20033;-48
2022/05/11 02:41:04;;;;;;;5.38;4.30;;;;;;;;;;5032453;28;20045;-56
2022/05/11 02:43:30;;;;;;;5.28;4.78;;;;;;;;;;5032600;28;20120;-49
2022/05/11 02:45:56;;;;;;;6.65;4.57;;;;;;;;;;5032412;28;20112;-50
2022/05/11 02:48:23;;;;;;;5.53;4.90;;;;;;;;;;5031611;28;20022;-51
2022/05/11 02:50:53;;;;;;;4.97;4.38;;;;;;;;;;5032236;28;20025;-51
2022/05/11 02:53:19;;;;;;;4.68;4.13;;;;;;;;;;5031003;28;20498;-51
2022/05/11 02:55:47;;;;;;;4.82;4.28;;;;;;;;;;5031865;28;20036;-49
2022/05/11 02:58:14;;;;;;;5.70;4.68;;;;;;;;;;5031507;28;20381;-47
2022/05/11 03:00:43;;;;;;;5.63;4.22;;;;;;;;;;5032333;28;20026;-49
2022/05/11 03:03:11;;;;;;;6.20;5.35;;;;;;;;;;5031420;28;20022;-49
2022/05/11 03:05:37;;;;;;;6.50;4.75;;;;;;;;;;5031617;28;20026;-49
2022/05/11 03:08:03;;;;;;;5.85;4.70;;;;;;;;;;5031799;28;20116;-47
2022/05/11 03:10:29;;;;;;;5.10;4.60;;;;;;;;;;5031294;28;20025;-47
2022/05/11 03:12:55;;;;;;;4.82;4.05;;;;;;;;;;5032094;28;20059;-47
2022/05/11 03:15:21;;;;;;;5.22;4.50;;;;;;;;;;5030430;28;20017;-47
2022/05/11 03:17:47;;;;;;;4.90;4.40;;;;;;;;;;5032365;28;20104;-47
2022/05/11 03:20:13;;;;;;;7.20;5.43;;;;;;;;;;5031649;28;20091;-49
2022/05/11 03:22:40;;;;;;;5.72;5.15;;;;;;;;;;5031859;28;20048;-47
2022/05/11 03:25:07;;;;;;;5.45;4.43;;;;;;;;;;5031599;28;20026;-55
2022/05/11 03:27:33;;;;;;;5.05;4.15;;;;;;;;;;5031777;28;20057;-47
2022/05/11 03:29:59;;;;;;;4.78;4.22;;;;;;;;;;5032037;28;20463;-48
2022/05/11 03:35:10;;;;;;;6.72;4.45;;;;;;;;;;5031013;28;20068;-50
2022/05/11 03:37:37;;;;;;;5.07;4.18;;;;;;;;;;5031501;28;20539;-48
2022/05/11 03:40:05;;;;;;;6.88;4.88;;;;;;;;;;5031532;28;20072;-47
2022/05/11 03:42:31;;;;;;;5.65;4.70;;;;;;;;;;5031342;28;20060;-48
2022/05/11 03:45:05;;;;;;;5.25;4.70;;;;;;;;;;5031695;28;20108;-48
2022/05/11 03:47:31;;;;;;;5.65;4.35;;;;;;;;;;5031290;28;20033;-47
2022/05/11 03:49:57;;;;;;;6.38;4.43;;;;;;;;;;5031869;28;20040;-47
2022/05/11 03:52:23;;;;;;;5.97;4.75;;;;;;;;;;5031022;28;20155;-47
2022/05/11 03:54:49;;;;;;;5.32;4.80;;;;;;;;;;5031315;28;20034;-47
2022/05/11 03:57:15;;;;;;;6.63;5.15;;;;;;;;;;5030901;28;20034;-48
2022/05/11 03:59:41;;;;;;;5.65;5.05;;;;;;;;;;5031927;28;20029;-49
2022/05/11 04:02:07;;;;;;;7.07;5.38;;;;;;;;;;5031321;28;20111;-55
2022/05/11 04:04:33;;;;;;;4.70;4.13;;;;;;;;;;5031264;28;20121;-48
2022/05/11 04:06:59;;;;;;;4.78;4.28;;;;;;;;;;5031637;28;20116;-47
2022/05/11 04:09:25;;;;;;;6.47;4.90;;;;;;;;;;5030333;28;20049;-49
2022/05/11 04:11:51;;;;;;;7.13;5.22;;;;;;;;;;5031496;28;20036;-48
2022/05/11 04:14:17;;;;;;;6.20;4.93;;;;;;;;;;5031047;28;20017;-48
2022/05/11 04:16:43;;;;;;;5.28;4.78;;;;;;;;;;5031555;28;20451;-47
2022/05/11 04:19:09;;;;;;;5.60;4.65;;;;;;;;;;5031110;28;20099;-55
2022/05/11 04:21:35;;;;;;;5.25;4.75;;;;;;;;;;5030925;28;20489;-48
2022/05/11 04:24:01;;;;;;;6.25;4.55;;;;;;;;;;5031570;28;20064;-47
2022/05/11 04:26:30;;;;;;;6.43;4.43;;;;;;;;;;5030562;28;20033;-49
2022/05/11 04:28:56;;;;;;;6.38;4.50;;;;;;;;;;5035093;28;20029;-48
2022/05/11 04:31:22;;;;;;;5.07;4.32;;;;;;;;;;5034542;28;20425;-47
2022/05/11 04:33:50;;;;;;;5.00;4.50;;;;;;;;;;5034851;28;20360;-47
2022/05/11 04:36:16;;;;;;;4.65;4.10;;;;;;;;;;5032651;28;20041;-47
2022/05/11 04:38:42;;;;;;;8.35;4.95;;;;;;;;;;5033041;28;20564;-46
2022/05/11 04:41:08;;;;;;;5.20;4.70;;;;;;;;;;5034721;28;20025;-54
2022/05/11 04:43:34;;;;;;;6.13;4.68;;;;;;;;;;5033714;28;20021;-49
2022/05/11 04:46:00;;;;;;;5.50;4.80;;;;;;;;;;5034852;28;20036;-48
2022/05/11 04:48:27;;;;;;;6.82;4.60;;;;;;;;;;5033587;28;20478;-47
2022/05/11 04:50:53;;;;;;;4.97;4.15;;;;;;;;;;5034093;28;20036;-49
2022/05/11 04:53:19;;;;;;;5.70;3.38;;;;;;;;;;5033867;28;20033;-49
2022/05/11 04:55:47;;;;;;;6.22;4.25;;;;;;;;;;5034426;28;20025;-48
2022/05/11 04:58:13;;;;;;;4.18;3.35;;;;;;;;;;5033767;28;20053;-56
2022/05/11 05:00:39;;;;;;;6.32;3.58;;;;;;;;;;5032407;28;20075;-47
2022/05/11 05:03:08;;;;;;;4.57;4.10;;;;;;;;;;5034240;28;20025;-46
2022/05/11 05:05:34;;;;;;;4.88;3.45;;;;;;;;;;5034653;28;20037;-50
2022/05/11 05:08:00;;;;;;;6.22;3.75;;;;;;;;;;5022578;28;20105;-49
2022/05/11 05:10:27;;;;;;;3.97;3.33;;;;;;;;;;5023817;28;20109;-53
2022/05/11 05:12:53;;;;;;;8.70;3.58;;;;;;;;;;5020857;28;20034;-48
2022/05/11 05:15:19;;;;;;;4.35;2.67;;;;;;;;;;5022373;28;20379;-49
2022/05/11 05:17:45;;;;;;;5.82;3.03;;;;;;;;;;5022676;28;20025;-48
2022/05/11 05:20:12;;;;;;;5.05;3.03;;;;;;;;;;5029793;28;20676;-53
2022/05/11 05:22:38;;;;;;;4.60;3.00;;;;;;;;;;5020264;28;20109;-46
2022/05/11 05:25:05;;;;;;;5.10;2.95;;;;;;;;;;5023848;28;20383;-46
2022/05/11 05:27:31;;;;;;;4.55;2.35;;;;;;;;;;5021022;28;20030;-44
2022/05/11 05:32:44;;;;;;;4.13;3.08;;;;;;;;;;5026579;28;20035;-45
2022/05/11 05:35:12;;;;;;;6.70;3.33;;;;;;;;;;5026810;28;20028;-48
2022/05/11 05:37:38;;;;;;;3.55;3.08;;;;;;;;;;5020280;28;20438;-44
2022/05/11 05:40:05;;;;;;;4.53;2.90;;;;;;;;;;5024881;28;20045;-44
2022/05/11 05:42:31;;;;;;;4.97;2.88;;;;;;;;;;5026240;28;20494;-45
2022/05/11 05:44:57;;;;;;;3.88;2.63;;;;;;;;;;5030820;28;20022;-45
2022/05/11 05:47:23;;;;;;;3.55;2.97;;;;;;;;;;5031319;28;20392;-46
2022/05/11 05:49:49;;;;;;;5.15;2.50;;;;;;;;;;5027000;28;20432;-45
2022/05/11 05:52:17;;;;;;;4.45;3.10;;;;;;;;;;5020801;28;20026;-49
2022/05/11 05:54:45;;;;;;;4.80;3.13;;;;;;;;;;5023687;28;20084;-45
2022/05/11 05:57:11;;;;;;;4.43;3.15;;;;;;;;;;5021400;28;20079;-44
2022/05/11 05:59:37;;;;;;;4.10;3.00;;;;;;;;;;5025384;28;20033;-45
2022/05/11 06:02:03;;;;;;;4.40;3.35;;;;;;;;;;5023031;28;20032;-45
2022/05/11 06:04:29;;;;;;;4.85;3.28;;;;;;;;;;5020257;28;20106;-44
2022/05/11 06:06:57;;;;;;;3.70;3.08;;;;;;;;;;5019229;28;20562;-44
2022/05/11 06:09:23;;;;;;;2.72;2.35;;;;;;;;;;5025830;28;20470;-44
2022/05/11 06:11:48;;;;;;;4.78;2.97;;;;;;;;;;5032985;28;20041;-44
2022/05/11 06:14:14;;;;;;;6.13;2.83;;;;;;;;;;5044657;28;20455;-52
2022/05/11 06:16:40;;;;;;;4.70;2.80;;;;;;;;;;5034449;28;20027;-46
2022/05/11 06:19:06;;;;;;;4.45;2.65;;;;;;;;;;5032977;28;20439;-46
2022/05/11 06:21:34;;;;;;;3.10;2.67;;;;;;;;;;5031977;28;20029;-44
2022/05/11 06:24:00;;;;;;;5.15;3.08;;;;;;;;;;5032770;28;20087;-44
2022/05/11 06:26:26;;;;;;;5.90;3.33;;;;;;;;;;5031525;28;20042;-45
2022/05/11 06:28:54;;;;;;;4.22;2.83;;;;;;;;;;5032111;28;20106;-45
2022/05/11 06:31:21;;;;;;;4.03;3.20;;;;;;;;;;5031633;28;20025;-45
2022/05/11 06:33:49;;;;;;;4.95;3.13;;;;;;;;;;5032628;28;20505;-45
2022/05/11 06:36:15;;;;;;;5.00;3.05;;;;;;;;;;5032253;28;20037;-51
2022/05/11 06:38:41;;;;;;;5.13;2.97;;;;;;;;;;5031337;28;20022;-46
2022/05/11 06:41:12;;;;;;;3.22;2.92;;;;;;;;;;5032658;28;20040;-45
2022/05/11 06:43:38;;;;;;;5.28;3.30;;;;;;;;;;5038599;28;20024;-45
2022/05/11 06:46:04;;;;;;;3.28;2.72;;;;;;;;;;5052098;28;20061;-46
2022/05/11 06:48:31;;;;;;;3.67;2.85;;;;;;;;;;5051620;28;20056;-47
2022/05/11 06:50:57;;;;;;;4.55;2.83;;;;;;;;;;5051628;28;20435;-46
2022/05/11 06:53:23;;;;;;;3.70;3.03;;;;;;;;;;5051438;28;20060;-45
2022/05/11 07:01:18;;;;;;;5.50;3.20;;;;;;;;;;5031520;28;20111;-52
2022/05/11 07:03:44;;;;;;;3.38;2.97;;;;;;;;;;5031695;28;20057;-44
2022/05/11 07:06:11;;;;;;;4.22;3.55;;;;;;;;;;5032194;28;20037;-46
2022/05/11 07:08:38;;;;;;;4.78;2.85;;;;;;;;;;5031472;28;20029;-46
2022/05/11 07:13:49;;;;;;;5.13;3.08;;;;;;;;;;5029749;28;20169;-44
2022/05/11 07:16:18;;;;;;;3.47;2.90;;;;;;;;;;5032198;28;20033;-48
2022/05/11 07:18:44;;;;;;;3.75;3.15;;;;;;;;;;5026159;28;20017;-48
2022/05/11 07:21:10;;;;;;;3.65;2.97;;;;;;;;;;5031386;28;20421;-48
2022/05/11 07:23:36;;;;;;;3.33;2.80;;;;;;;;;;5027102;28;20029;-45
2022/05/11 07:26:02;;;;;;;6.05;2.80;;;;;;;;;;5033093;28;20034;-45
2022/05/11 07:28:28;;;;;;;3.88;2.85;;;;;;;;;;5031873;28;20029;-44
2022/05/11 07:30:54;;;;;;;5.22;2.63;;;;;;;;;;5028948;28;20029;-45
2022/05/11 07:33:21;;;;;;;4.57;3.22;;;;;;;;;;5030898;28;20061;-50
2022/05/11 07:35:47;;;;;;;3.63;2.72;;;;;;;;;;5031041;28;20026;-47
2022/05/11 07:38:14;;;;;;;3.97;2.58;;;;;;;;;;5030900;28;20433;-48
2022/05/11 07:40:41;;;;;;;4.82;3.20;;;;;;;;;;5029873;28;20512;-46
2022/05/11 07:43:07;;;;;;;7.13;3.13;;;;;;;;;;5034500;28;20044;-47
2022/05/11 07:45:33;;;;;;;5.57;2.50;;;;;;;;;;5050724;28;20057;-45
2022/05/11 07:47:59;;;;;;;5.50;2.80;;;;;;;;;;5051542;28;20045;-49
2022/05/11 07:50:25;;;;;;;4.85;3.75;;;;;;;;;;5050749;28;20025;-48
2022/05/11 07:52:53;;;;;;;4.72;2.88;;;;;;;;;;5042923;28;20026;-45
2022/05/11 07:55:20;;;;;;;2.65;2.38;;;;;;;;;;5031551;28;20033;-48
2022/05/11 08:00:31;;;;;;;2.85;2.40;;;;;;;;;;5030827;28;20083;-45
2022/05/11 08:02:58;;;;;;;8.05;2.80;;;;;;;;;;5033828;28;20530;-46
2022/05/11 08:05:24;;;;;;;3.22;2.65;;;;;;;;;;5034802;28;20025;-51
2022/05/11 08:07:50;;;;;;;4.38;2.53;;;;;;;;;;5034814;28;20037;-46
2022/05/11 08:10:19;;;;;;;2.58;2.22;;;;;;;;;;5035150;28;20026;-45
2022/05/11 08:12:46;;;;;;;3.08;2.50;;;;;;;;;;5033840;28;20053;-47
2022/05/11 08:15:13;;;;;;;3.95;2.75;;;;;;;;;;5035319;28;20029;-47
2022/05/11 08:17:41;;;;;;;3.78;2.60;;;;;;;;;;5034235;28;20359;-46
2022/05/11 08:20:08;;;;;;;2.63;2.40;;;;;;;;;;5035149;28;20530;-46
2022/05/11 08:22:35;;;;;;;3.58;2.78;;;;;;;;;;5034346;28;20033;-45
2022/05/11 08:25:01;;;;;;;4.82;2.50;;;;;;;;;;5035131;28;20577;-47
2022/05/11 08:27:31;;;;;;;4.82;2.63;;;;;;;;;;5033943;28;20036;-45
2022/05/11 08:35:28;;;;;;;5.03;2.50;;;;;;;;;;5018750;28;20426;-52
2022/05/11 08:37:55;;;;;;;3.08;2.20;;;;;;;;;;5033008;28;20352;-46
2022/05/11 08:40:40;;;;;;;4.32;2.25;;;;;;;;;;5034071;28;20049;-45
2022/05/11 08:43:14;;;;;;;3.15;2.58;;;;;;;;;;5027839;28;20031;-44
2022/05/11 08:45:49;;;;;;;3.70;2.45;;;;;;;;;;5036161;28;20018;-47
2022/05/11 08:48:28;;;;;;;4.18;2.28;;;;;;;;;;5027759;28;20033;-45
2022/05/11 08:50:54;;;;;;;5.15;3.35;;;;;;;;;;5035830;28;20088;-45
2022/05/11 08:53:32;;;;;;;3.40;2.10;;;;;;;;;;5034856;28;20036;-45
2022/05/11 08:56:02;;;;;;;3.10;2.10;;;;;;;;;;5034412;28;20530;-46
2022/05/11 08:58:31;;;;;;;4.47;2.17;;;;;;;;;;5033393;28;20026;-44
2022/05/11 09:00:58;;;;;;;2.47;2.28;;;;;;;;;;5030295;28;20104;-44
2022/05/11 09:03:38;;;;;;;4.47;2.15;;;;;;;;;;5033689;28;20022;-48
2022/05/11 09:06:06;;;;;;;4.20;2.20;;;;;;;;;;5034129;28;20355;-47
2022/05/11 09:08:37;;;;;;;3.80;2.55;;;;;;;;;;5032844;28;20426;-48
2022/05/11 09:11:04;;;;;;;3.70;2.27;;;;;;;;;;5032175;28;20018;-46
2022/05/11 09:13:30;;;;;;;3.22;2.28;;;;;;;;;;5038554;28;20021;-45
2022/05/11 09:15:59;;;;;;;3.10;2.58;;;;;;;;;;5054006;28;20021;-47
2022/05/11 09:18:31;;;;;;;4.47;2.45;;;;;;;;;;5053236;28;20017;-50
2022/05/11 09:20:58;;;;;;;6.05;3.03;;;;;;;;;;5053536;28;20021;-44
2022/05/11 09:23:30;;;;;;;3.45;2.67;;;;;;;;;;5053226;28;20094;-51
2022/05/11 09:25:59;;;;;;;2.92;2.22;;;;;;;;;;5053786;28;20466;-45
2022/05/11 09:28:27;;;;;;;6.43;2.28;;;;;;;;;;5053631;28;20527;-46
2022/05/11 09:31:07;;;;;;;3.65;2.50;;;;;;;;;;5052066;28;20071;-45
2022/05/11 09:33:41;;;;;;;4.68;2.78;;;;;;;;;;5032520;28;20025;-48
2022/05/11 09:36:09;;;;;;;4.75;2.42;;;;;;;;;;5033470;28;20047;-46
2022/05/11 09:38:37;;;;;;;3.03;2.50;;;;;;;;;;5032323;28;20025;-46
2022/05/11 09:41:18;;;;;;;3.22;2.13;;;;;;;;;;5032829;28;20052;-45
2022/05/11 09:43:52;;;;;;;2.35;2.10;;;;;;;;;;5026114;28;20103;-46
2022/05/11 09:46:27;;;;;;;4.03;2.58;;;;;;;;;;5033248;28;20025;-46
2022/05/11 09:48:57;;;;;;;4.45;2.88;;;;;;;;;;5032976;28;20026;-47
2022/05/11 09:51:25;;;;;;;3.20;2.65;;;;;;;;;;5033278;28;20029;-48
2022/05/11 09:53:53;;;;;;;4.32;2.35;;;;;;;;;;5032473;28;20037;-45
2022/05/11 09:56:24;;;;;;;4.57;2.67;;;;;;;;;;5033083;28;20356;-45
2022/05/11 09:58:50;;;;;;;6.95;3.28;;;;;;;;;;5032160;28;20037;-46
2022/05/11 10:01:22;;;;;;;4.05;2.63;;;;;;;;;;5032735;28;20471;-46
2022/05/11 10:03:48;;;;;;;;;;;;;;;;;;5026901;28;20630;-48
2022/05/11 10:06:16;;;;;;;4.78;2.97;;;;;;;;;;5024184;28;19920;-45
2022/05/11 10:08:44;;;;;;;3.28;2.80;;;;;;;;;;5023614;28;20037;-47
2022/05/11 10:11:13;;;;;;;3.10;2.75;;;;;;;;;;5025025;28;20021;-46
2022/05/11 10:13:41;;;;;;;6.40;2.85;;;;;;;;;;5027139;28;20038;-45
2022/05/11 10:21:58;;;;;;;5.90;3.40;;;;;;;;;;5032011;28;20051;-45
2022/05/11 10:24:27;;;;;;;4.05;2.78;;;;;;;;;;5032161;28;20028;-48
2022/05/11 10:27:12;;;;;;;4.85;2.90;;;;;;;;;;5031730;28;20558;-45
2022/05/11 10:29:50;;;;;;;4.90;3.10;;;;;;;;;;5031781;28;20029;-45
2022/05/11 10:32:29;;;;;;;3.90;2.88;;;;;;;;;;5032161;28;20475;-45
2022/05/11 10:35:10;;;;;;;3.78;2.85;;;;;;;;;;5032535;28;20022;-47
2022/05/11 10:37:41;;;;;;;5.80;3.20;;;;;;;;;;5031632;28;20443;-46
2022/05/11 10:40:07;;;;;;;5.10;2.67;;;;;;;;;;5031906;28;20072;-46
2022/05/11 10:42:34;;;;;;;4.90;3.00;;;;;;;;;;5031209;28;20264;-45
2022/05/11 10:45:25;;;;;;;3.90;2.70;;;;;;;;;;5050511;28;20488;-46
2022/05/11 10:48:05;;;;;;;3.95;2.60;;;;;;;;;;5051513;28;20046;-46
2022/05/11 10:50:46;;;;;;;4.63;2.70;;;;;;;;;;5051375;28;20032;-50
2022/05/11 10:53:34;;;;;;;6.18;2.85;;;;;;;;;;5019875;28;20033;-46
2022/05/11 10:56:15;;;;;;;3.03;2.70;;;;;;;;;;5031882;28;20029;-45
2022/05/11 10:59:07;;;;;;;5.70;2.72;;;;;;;;;;5031254;28;20021;-46
2022/05/11 11:01:56;;;;;;;3.70;2.58;;;;;;;;;;5031281;28;20478;-44
2022/05/11 11:04:34;;;;;;;3.45;2.70;;;;;;;;;;5028782;28;20069;-44
2022/05/11 11:07:16;;;;;;;4.50;2.75;;;;;;;;;;5032205;28;20026;-46
2022/05/11 11:09:42;;;;;;;3.20;2.13;;;;;;;;;;5031209;28;20026;-46
2022/05/11 11:12:08;;;;;;;4.22;2.70;;;;;;;;;;5024306;28;20389;-45
2022/05/11 11:14:42;;;;;;;4.18;2.28;;;;;;;;;;5024772;28;20419;-45
2022/05/11 11:17:09;;;;;;;3.35;2.80;;;;;;;;;;5024209;28;20395;-45
2022/05/11 11:19:35;;;;;;;2.50;2.30;;;;;;;;;;5031018;28;20036;-45
2022/05/11 11:22:03;;;;;;;5.00;2.97;;;;;;;;;;5031463;28;20029;-45
2022/05/11 11:24:29;;;;;;;3.88;2.80;;;;;;;;;;5031009;28;20112;-50
2022/05/11 11:26:57;;;;;;;6.28;2.50;;;;;;;;;;5028551;28;20060;-46
2022/05/11 11:29:25;;;;;;;3.38;2.78;;;;;;;;;;5029684;28;20032;-45
2022/05/11 11:32:00;;;;;;;3.10;2.50;;;;;;;;;;5025606;28;20656;-44
2022/05/11 11:34:29;;;;;;;4.38;2.58;;;;;;;;;;5026818;28;20471;-45
2022/05/11 11:36:56;;;;;;;8.57;2.88;;;;;;;;;;5032206;28;20029;-48
2022/05/11 11:39:40;;;;;;;3.08;2.35;;;;;;;;;;5035422;28;20402;-44
2022/05/11 11:42:07;;;;;;;4.70;2.20;;;;;;;;;;5034590;28;20485;-47
2022/05/11 11:44:36;;;;;;;3.17;2.70;;;;;;;;;;5035638;28;20031;-48
2022/05/11 11:47:24;;;;;;;3.78;2.25;;;;;;;;;;5034680;28;20041;-44
2022/05/11 11:49:50;;;;;;;5.22;2.75;;;;;;;;;;5034135;28;20022;-44
2022/05/11 11:52:36;;;;;;;4.35;2.72;;;;;;;;;;5035499;28;20129;-47
2022/05/11 11:55:03;;;;;;;7.10;2.72;;;;;;;;;;5020992;28;20021;-47
2022/05/11 11:57:30;;;;;;;3.45;2.40;;;;;;;;;;5017561;28;20487;-44
2022/05/11 11:59:58;;;;;;;5.20;2.75;;;;;;;;;;5024777;28;20086;-45
2022/05/11 12:02:24;;;;;;;2.25;2.05;;;;;;;;;;5024552;28;20033;-46
2022/05/11 12:04:56;;;;;;;2.60;2.17;;;;;;;;;;5025389;28;20042;-48
2022/05/11 12:15:40;;;;;;;2.40;2.10;;;;;;;;;;5014205;28;20091;-46
2022/05/11 12:18:26;;;;;;;2.78;2.30;;;;;;;;;;5033408;28;20029;-49
2022/05/11 12:20:54;;;;;;;3.88;2.30;;;;;;;;;;5034009;28;20097;-47
2022/05/11 12:23:30;;;;;;;6.72;3.15;;;;;;;;;;5034516;28;20029;-44
2022/05/11 12:25:58;;;;;;;3.97;2.25;;;;;;;;;;5034093;28;20034;-45
2022/05/11 12:28:29;;;;;;;4.32;2.08;;;;;;;;;;5034503;28;20065;-45
2022/05/11 12:30:56;;;;;;;5.72;2.58;;;;;;;;;;5033566;28;20034;-44
2022/05/11 12:33:24;;;;;;;4.47;2.10;;;;;;;;;;5034609;28;20021;-46
2022/05/11 12:35:50;;;;;;;5.00;1.70;;;;;;;;;;5033725;28;20034;-45
2022/05/11 12:38:27;;;;;;;3.72;2.33;;;;;;;;;;5034352;28;20034;-46
2022/05/11 12:40:53;;;;;;;4.18;2.05;;;;;;;;;;5033185;28;20037;-44
2022/05/11 12:43:22;;;;;;;3.97;2.05;;;;;;;;;;5033472;28;20026;-44
2022/05/11 12:45:48;;;;;;;6.28;1.98;;;;;;;;;;5033538;28;20037;-45
2022/05/11 12:48:25;;;;;;;2.67;1.90;;;;;;;;;;5033989;28;20021;-46
2022/05/11 12:51:00;;;;;;;4.15;1.80;;;;;;;;;;5033123;28;20029;-45
2022/05/11 12:53:28;;;;;;;2.60;1.80;;;;;;;;;;5033397;28;20021;-44
2022/05/11 12:55:56;;;;;;;3.38;1.98;;;;;;;;;;5032780;28;20045;-45
2022/05/11 12:58:24;;;;;;;3.85;1.98;;;;;;;;;;5034368;28;20100;-46
2022/05/11 13:01:00;;;;;;;4.15;2.05;;;;;;;;;;5033095;28;20018;-45
2022/05/11 13:03:37;;;;;;;2.53;1.80;;;;;;;;;;5034095;28;20079;-44
2022/05/11 13:06:11;;;;;;;4.57;2.20;;;;;;;;;;5033764;28;20382;-44
2022/05/11 13:08:42;;;;;;;4.78;2.05;;;;;;;;;;5032909;28;20046;-49
2022/05/11 13:11:09;;;;;;;4.70;2.00;;;;;;;;;;5032954;28;20071;-44
2022/05/11 13:13:35;;;;;;;3.75;2.00;;;;;;;;;;5025464;28;20030;-50
2022/05/11 13:16:06;;;;;;;2.33;1.63;;;;;;;;;;5028122;28;20025;-44
2022/05/11 13:18:32;;;;;;;2.47;1.77;;;;;;;;;;5031316;28;20544;-44
2022/05/11 13:21:00;;;;;;;3.20;1.50;;;;;;;;;;5013415;28;20092;-44
2022/05/11 13:23:33;;;;;;;5.65;2.00;;;;;;;;;;5013644;28;20026;-44
2022/05/11 13:26:00;;;;;;;3.88;1.90;;;;;;;;;;5013372;28;20112;-44
2022/05/11 13:28:31;;;;;;;2.33;1.60;;;;;;;;;;5031197;28;20462;-45
2022/05/11 13:30:57;;;;;;;;;;;;;;;;;;5032785;28;20032;-45
2022/05/11 13:33:40;;;;;;;3.70;1.77;;;;;;;;;;5033400;28;19905;-46
2022/05/11 13:36:11;;;;;;;7.78;1.80;;;;;;;;;;5033552;28;20021;-45
2022/05/11 13:38:38;;;;;;;6.07;1.65;;;;;;;;;;5032207;28;20505;-51
2022/05/11 13:41:05;;;;;;;2.80;1.80;;;;;;;;;;5032813;28;20104;-44
2022/05/11 13:43:35;;;;;;;3.05;1.75;;;;;;;;;;5032118;28;20484;-45
2022/05/11 13:46:01;;;;;;;1.98;1.40;;;;;;;;;;5033009;28;20032;-45
2022/05/11 13:48:29;;;;;;;2.22;1.77;;;;;;;;;;5033300;28;20018;-43
2022/05/11 13:51:05;;;;;;;3.13;1.58;;;;;;;;;;5032268;28;20159;-44
2022/05/11 13:53:33;;;;;;;3.22;1.95;;;;;;;;;;5032957;28;20038;-44
2022/05/11 13:56:01;;;;;;;2.15;1.58;;;;;;;;;;5031950;28;20029;-44
2022/05/11 13:58:33;;;;;;;2.05;1.42;;;;;;;;;;5033190;28;20483;-44
2022/05/11 14:00:59;;;;;;;;;;;;;;;;;;5031863;28;20038;-45
2022/05/11 14:03:29;;;;;;;6.20;1.55;;;;;;;;;;5032641;28;19905;-47
2022/05/11 14:05:55;;;;;;;2.30;1.63;;;;;;;;;;5032217;28;20105;-45
2022/05/11 14:08:22;;;;;;;3.55;1.90;;;;;;;;;;5032813;28;20071;-45
2022/05/11 14:10:50;;;;;;;1.83;1.50;;;;;;;;;;5031802;28;20034;-45
2022/05/11 14:13:16;;;;;;;2.97;1.95;;;;;;;;;;5032034;28;20433;-45
2022/05/11 14:15:42;;;;;;;2.72;1.55;;;;;;;;;;5031185;28;20540;-44
2022/05/11 14:18:11;;;;;;;4.50;2.03;;;;;;;;;;5032641;28;20045;-45
2022/05/11 14:20:37;;;;;;;2.25;1.73;;;;;;;;;;5032204;28;20095;-51
2022/05/11 14:23:04;;;;;;;2.15;1.67;;;;;;;;;;5032114;28;20026;-46
2022/05/11 14:25:30;;;;;;;1.85;1.60;;;;;;;;;;5032303;28;20420;-47
2022/05/11 14:27:56;;;;;;;4.35;2.30;;;;;;;;;;5031737;28;20049;-46
2022/05/11 14:30:23;;;;;;;1.80;1.45;;;;;;;;;;5032321;28;20172;-45
2022/05/11 14:32:49;;;;;;;1.80;1.42;;;;;;;;;;5031540;28;20025;-47
2022/05/11 14:35:18;;;;;;;3.33;1.75;;;;;;;;;;5032634;28;20155;-46
2022/05/11 14:37:45;;;;;;;2.33;1.83;;;;;;;;;;5031645;28;20374;-47
2022/05/11 14:40:13;;;;;;;4.38;2.10;;;;;;;;;;5032214;28;20057;-46
2022/05/11 14:42:39;;;;;;;2.70;1.60;;;;;;;;;;5031304;28;20139;-50
2022/05/11 14:45:06;;;;;;;2.25;1.73;;;;;;;;;;5038482;28;20129;-45
2022/05/11 14:47:32;;;;;;;4.25;1.70;;;;;;;;;;5031226;28;20472;-45
2022/05/11 14:49:59;;;;;;;2.30;2.10;;;;;;;;;;5031345;28;20612;-46
2022/05/11 14:52:25;;;;;;;2.35;1.40;;;;;;;;;;5013254;28;20037;-46
2022/05/11 14:54:51;;;;;;;2.58;1.58;;;;;;;;;;5030995;28;20462;-47
2022/05/11 15:02:48;;;;;;;3.55;1.77;;;;;;;;;;5031299;28;20107;-45
2022/05/11 15:05:15;;;;;;;2.38;2.00;;;;;;;;;;5031807;28;20025;-45
2022/05/11 15:07:41;;;;;;;2.08;1.60;;;;;;;;;;5031251;28;20036;-50
2022/05/11 15:10:08;;;;;;;3.72;1.80;;;;;;;;;;5028018;28;20045;-45
2022/05/11 15:15:19;;;;;;;3.67;1.90;;;;;;;;;;5031082;28;20511;-45
2022/05/11 15:17:45;;;;;;;2.08;1.83;;;;;;;;;;5031201;28;20037;-45
2022/05/11 15:20:13;;;;;;;2.65;1.98;;;;;;;;;;5031514;28;20105;-45
2022/05/11 15:22:39;;;;;;;2.33;2.03;;;;;;;;;;5031959;28;20099;-51
2022/05/11 15:25:06;;;;;;;3.40;1.80;;;;;;;;;;5030798;28;20534;-46
2022/05/11 15:27:32;;;;;;;2.60;2.13;;;;;;;;;;5030344;28;20045;-45
2022/05/11 15:29:59;;;;;;;2.40;1.60;;;;;;;;;;5030884;28;20026;-45
2022/05/11 15:32:27;;;;;;;2.05;1.83;;;;;;;;;;5030989;28;20057;-45
2022/05/11 15:34:53;;;;;;;2.45;2.03;;;;;;;;;;5030655;28;20100;-45
2022/05/11 15:37:19;;;;;;;3.63;2.15;;;;;;;;;;5030903;28;20029;-48